sensor_id;sensor_type;location;lat;lon;timestamp;temperature;humidity
52209;DHT22;38507;53.132;6.394;2023-04-01T00:01:40;9.80;99.90
52209;DHT22;38507;53.132;6.394;2023-04-01T00:04:06;9.80;99.90
52209;DHT22;38507;53.132;6.394;2023-04-01T00:06:31;9.90;99.90
52209;DHT22;38507;53.132;6.394;2023-04-01T00:08:57;9.80;99.90
52209;DHT22;38507;53.132;6.394;2023-04-01T00:11:23;9.80;99.90
52209;DHT22;38507;53.132;6.394;2023-04-01T00:13:49;9.90;99.90
52209;DHT22;38507;53.132;6.394;2023-04-01T00:16:15;9.80;99.90
52209;DHT22;38507;53.132;6.394;2023-04-01T00:18:40;9.80;99.90
52209;DHT22;38507;53.132;6.394;2023-04-01T00:21:07;9.80;99.90
52209;DHT22;38507;53.132;6.394;2023-04-01T00:23:33;9.80;99.90
52209;DHT22;38507;53.132;6.394;2023-04-01T00:26:02;9.80;99.90
52209;DHT22;38507;53.132;6.394;2023-04-01T00:28:28;9.80;99.90
52209;DHT22;38507;53.132;6.394;2023-04-01T00:30:54;9.80;99.90
52209;DHT22;38507;53.132;6.394;2023-04-01T00:33:20;9.80;99.90
52209;DHT22;38507;53.132;6.394;2023-04-01T00:35:46;10.20;99.90
52209;DHT22;38507;53.132;6.394;2023-04-01T00:38:12;9.80;99.90
52209;DHT22;38507;53.132;6.394;2023-04-01T00:40:40;9.80;99.90
52209;DHT22;38507;53.132;6.394;2023-04-01T00:43:16;10.00;99.90
52209;DHT22;38507;53.132;6.394;2023-04-01T00:45:45;9.80;99.90
52209;DHT22;38507;53.132;6.394;2023-04-01T00:50:42;9.80;99.90
52209;DHT22;38507;53.132;6.394;2023-04-01T00:53:09;9.80;99.90
52209;DHT22;38507;53.132;6.394;2023-04-01T00:55:37;10.00;99.90
52209;DHT22;38507;53.132;6.394;2023-04-01T00:58:08;9.80;99.90
52209;DHT22;38507;53.132;6.394;2023-04-01T01:00:36;9.80;99.90
52209;DHT22;38507;53.132;6.394;2023-04-01T01:03:03;9.80;99.90
52209;DHT22;38507;53.132;6.394;2023-04-01T01:08:15;9.70;99.90
52209;DHT22;38507;53.132;6.394;2023-04-01T01:10:45;9.70;99.90
52209;DHT22;38507;53.132;6.394;2023-04-01T01:18:42;9.80;99.90
52209;DHT22;38507;53.132;6.394;2023-04-01T01:32:03;9.70;99.90
52209;DHT22;38507;53.132;6.394;2023-04-01T01:37:20;9.70;99.90
52209;DHT22;38507;53.132;6.394;2023-04-01T01:39:55;9.70;99.90
52209;DHT22;38507;53.132;6.394;2023-04-01T01:42:24;9.70;99.90
52209;DHT22;38507;53.132;6.394;2023-04-01T01:44:52;9.70;99.90
52209;DHT22;38507;53.132;6.394;2023-04-01T01:47:21;9.70;99.90
52209;DHT22;38507;53.132;6.394;2023-04-01T01:49:48;9.70;99.90
52209;DHT22;38507;53.132;6.394;2023-04-01T01:52:14;9.70;99.90
52209;DHT22;38507;53.132;6.394;2023-04-01T01:54:53;9.70;99.90
52209;DHT22;38507;53.132;6.394;2023-04-01T01:57:28;9.70;99.90
52209;DHT22;38507;53.132;6.394;2023-04-01T01:59:58;9.70;99.90
52209;DHT22;38507;53.132;6.394;2023-04-01T02:02:26;9.90;99.90
52209;DHT22;38507;53.132;6.394;2023-04-01T02:04:57;9.70;99.90
52209;DHT22;38507;53.132;6.394;2023-04-01T02:07:30;9.70;99.90
52209;DHT22;38507;53.132;6.394;2023-04-01T02:09:58;9.70;99.90
52209;DHT22;38507;53.132;6.394;2023-04-01T02:12:24;9.90;99.90
52209;DHT22;38507;53.132;6.394;2023-04-01T02:14:57;9.70;99.90
52209;DHT22;38507;53.132;6.394;2023-04-01T02:17:27;9.90;99.90
52209;DHT22;38507;53.132;6.394;2023-04-01T02:20:16;9.60;99.90
52209;DHT22;38507;53.132;6.394;2023-04-01T02:22:54;9.60;99.90
52209;DHT22;38507;53.132;6.394;2023-04-01T02:25:24;9.60;99.90
52209;DHT22;38507;53.132;6.394;2023-04-01T02:27:51;10.00;99.90
52209;DHT22;38507;53.132;6.394;2023-04-01T02:30:18;9.60;99.90
52209;DHT22;38507;53.132;6.394;2023-04-01T02:32:44;9.70;99.90
52209;DHT22;38507;53.132;6.394;2023-04-01T02:35:13;9.60;99.90
52209;DHT22;38507;53.132;6.394;2023-04-01T02:37:39;9.60;99.90
52209;DHT22;38507;53.132;6.394;2023-04-01T02:40:12;9.80;99.90
52209;DHT22;38507;53.132;6.394;2023-04-01T02:42:38;9.60;99.90
52209;DHT22;38507;53.132;6.394;2023-04-01T02:45:05;9.60;99.90
52209;DHT22;38507;53.132;6.394;2023-04-01T02:47:31;9.60;99.90
52209;DHT22;38507;53.132;6.394;2023-04-01T02:49:57;9.60;99.90
52209;DHT22;38507;53.132;6.394;2023-04-01T02:52:26;9.80;99.90
52209;DHT22;38507;53.132;6.394;2023-04-01T02:54:52;9.70;99.90
52209;DHT22;38507;53.132;6.394;2023-04-01T02:57:17;9.60;99.90
52209;DHT22;38507;53.132;6.394;2023-04-01T02:59:43;9.60;99.90
52209;DHT22;38507;53.132;6.394;2023-04-01T03:02:09;9.60;99.90
52209;DHT22;38507;53.132;6.394;2023-04-01T03:04:35;9.60;99.90
52209;DHT22;38507;53.132;6.394;2023-04-01T03:07:01;9.60;99.90
52209;DHT22;38507;53.132;6.394;2023-04-01T03:09:26;9.60;99.90
52209;DHT22;38507;53.132;6.394;2023-04-01T03:11:52;9.60;99.90
52209;DHT22;38507;53.132;6.394;2023-04-01T03:14:18;9.60;99.90
52209;DHT22;38507;53.132;6.394;2023-04-01T03:16:43;9.60;99.90
52209;DHT22;38507;53.132;6.394;2023-04-01T03:19:09;9.70;99.90
52209;DHT22;38507;53.132;6.394;2023-04-01T03:21:34;9.60;99.90
52209;DHT22;38507;53.132;6.394;2023-04-01T03:24:00;9.60;99.90
52209;DHT22;38507;53.132;6.394;2023-04-01T03:26:26;9.60;99.90
52209;DHT22;38507;53.132;6.394;2023-04-01T03:28:55;9.80;99.90
52209;DHT22;38507;53.132;6.394;2023-04-01T03:31:21;10.00;99.90
52209;DHT22;38507;53.132;6.394;2023-04-01T03:33:47;9.60;99.90
52209;DHT22;38507;53.132;6.394;2023-04-01T03:36:13;9.70;99.90
52209;DHT22;38507;53.132;6.394;2023-04-01T03:38:40;9.70;99.90
52209;DHT22;38507;53.132;6.394;2023-04-01T03:41:06;9.60;99.90
52209;DHT22;38507;53.132;6.394;2023-04-01T03:43:32;10.00;99.90
52209;DHT22;38507;53.132;6.394;2023-04-01T03:45:58;9.60;99.90
52209;DHT22;38507;53.132;6.394;2023-04-01T03:48:24;9.60;99.90
52209;DHT22;38507;53.132;6.394;2023-04-01T03:50:50;9.70;99.90
52209;DHT22;38507;53.132;6.394;2023-04-01T03:53:16;9.60;99.90
52209;DHT22;38507;53.132;6.394;2023-04-01T03:55:42;9.90;99.90
52209;DHT22;38507;53.132;6.394;2023-04-01T03:58:08;9.90;99.90
52209;DHT22;38507;53.132;6.394;2023-04-01T04:00:36;10.10;99.90
52209;DHT22;38507;53.132;6.394;2023-04-01T04:03:02;9.60;99.90
52209;DHT22;38507;53.132;6.394;2023-04-01T04:05:28;9.60;99.90
52209;DHT22;38507;53.132;6.394;2023-04-01T04:07:54;9.60;99.90
52209;DHT22;38507;53.132;6.394;2023-04-01T04:10:20;9.60;99.90
52209;DHT22;38507;53.132;6.394;2023-04-01T04:12:49;9.70;99.90
52209;DHT22;38507;53.132;6.394;2023-04-01T04:15:15;9.60;99.90
52209;DHT22;38507;53.132;6.394;2023-04-01T04:17:41;9.60;99.90
52209;DHT22;38507;53.132;6.394;2023-04-01T04:20:07;9.60;99.90
52209;DHT22;38507;53.132;6.394;2023-04-01T04:22:33;9.60;99.90
52209;DHT22;38507;53.132;6.394;2023-04-01T04:24:59;9.70;99.90
52209;DHT22;38507;53.132;6.394;2023-04-01T04:27:25;9.90;99.90
52209;DHT22;38507;53.132;6.394;2023-04-01T04:29:51;9.60;99.90
52209;DHT22;38507;53.132;6.394;2023-04-01T04:32:16;9.70;99.90
52209;DHT22;38507;53.132;6.394;2023-04-01T04:34:42;9.70;99.90
52209;DHT22;38507;53.132;6.394;2023-04-01T04:37:07;9.60;99.90
52209;DHT22;38507;53.132;6.394;2023-04-01T04:39:33;9.60;99.90
52209;DHT22;38507;53.132;6.394;2023-04-01T04:41:59;9.60;99.90
52209;DHT22;38507;53.132;6.394;2023-04-01T04:44:24;9.60;99.90
52209;DHT22;38507;53.132;6.394;2023-04-01T04:46:50;9.60;99.90
52209;DHT22;38507;53.132;6.394;2023-04-01T04:49:16;9.60;99.90
52209;DHT22;38507;53.132;6.394;2023-04-01T04:51:42;9.60;99.90
52209;DHT22;38507;53.132;6.394;2023-04-01T04:54:08;10.00;99.90
52209;DHT22;38507;53.132;6.394;2023-04-01T04:56:33;9.60;99.90
52209;DHT22;38507;53.132;6.394;2023-04-01T04:58:59;9.60;99.90
52209;DHT22;38507;53.132;6.394;2023-04-01T05:01:25;9.70;99.90
52209;DHT22;38507;53.132;6.394;2023-04-01T05:03:51;9.60;99.90
52209;DHT22;38507;53.132;6.394;2023-04-01T05:06:17;9.60;99.90
52209;DHT22;38507;53.132;6.394;2023-04-01T05:08:44;9.60;99.90
52209;DHT22;38507;53.132;6.394;2023-04-01T05:11:13;9.60;99.90
52209;DHT22;38507;53.132;6.394;2023-04-01T05:13:39;9.60;99.90
52209;DHT22;38507;53.132;6.394;2023-04-01T05:16:11;9.60;99.90
52209;DHT22;38507;53.132;6.394;2023-04-01T05:18:37;9.60;99.90
52209;DHT22;38507;53.132;6.394;2023-04-01T05:21:03;9.60;99.90
52209;DHT22;38507;53.132;6.394;2023-04-01T05:23:30;9.60;99.90
52209;DHT22;38507;53.132;6.394;2023-04-01T05:25:56;9.60;99.90
52209;DHT22;38507;53.132;6.394;2023-04-01T05:28:22;9.60;99.90
52209;DHT22;38507;53.132;6.394;2023-04-01T05:30:48;9.80;99.90
52209;DHT22;38507;53.132;6.394;2023-04-01T05:33:14;9.60;99.90
52209;DHT22;38507;53.132;6.394;2023-04-01T05:35:40;9.70;99.90
52209;DHT22;38507;53.132;6.394;2023-04-01T05:38:06;9.60;99.90
52209;DHT22;38507;53.132;6.394;2023-04-01T05:40:32;9.70;99.90
52209;DHT22;38507;53.132;6.394;2023-04-01T05:42:59;9.60;99.90
52209;DHT22;38507;53.132;6.394;2023-04-01T05:45:25;9.60;99.90
52209;DHT22;38507;53.132;6.394;2023-04-01T05:47:50;9.60;99.90
52209;DHT22;38507;53.132;6.394;2023-04-01T05:50:16;9.60;99.90
52209;DHT22;38507;53.132;6.394;2023-04-01T05:52:42;9.60;99.90
52209;DHT22;38507;53.132;6.394;2023-04-01T05:55:08;9.60;99.90
52209;DHT22;38507;53.132;6.394;2023-04-01T05:57:34;9.60;99.90
52209;DHT22;38507;53.132;6.394;2023-04-01T05:59:59;9.60;99.90
52209;DHT22;38507;53.132;6.394;2023-04-01T06:02:25;9.60;99.90
52209;DHT22;38507;53.132;6.394;2023-04-01T06:05:00;9.60;99.90
52209;DHT22;38507;53.132;6.394;2023-04-01T06:07:27;9.60;99.90
52209;DHT22;38507;53.132;6.394;2023-04-01T06:09:54;9.60;99.90
52209;DHT22;38507;53.132;6.394;2023-04-01T06:15:48;9.60;99.90
52209;DHT22;38507;53.132;6.394;2023-04-01T06:18:36;9.60;99.90
52209;DHT22;38507;53.132;6.394;2023-04-01T06:24:38;9.70;99.90
52209;DHT22;38507;53.132;6.394;2023-04-01T06:27:20;9.70;99.90
52209;DHT22;38507;53.132;6.394;2023-04-01T06:47:49;9.80;99.90
52209;DHT22;38507;53.132;6.394;2023-04-01T06:55:44;9.90;99.90
52209;DHT22;38507;53.132;6.394;2023-04-01T06:58:25;9.80;99.90
52209;DHT22;38507;53.132;6.394;2023-04-01T07:00:54;9.90;99.90
52209;DHT22;38507;53.132;6.394;2023-04-01T07:03:30;9.90;99.90
52209;DHT22;38507;53.132;6.394;2023-04-01T07:06:05;9.90;99.90
52209;DHT22;38507;53.132;6.394;2023-04-01T07:08:36;9.90;99.90
52209;DHT22;38507;53.132;6.394;2023-04-01T07:11:09;10.60;99.90
52209;DHT22;38507;53.132;6.394;2023-04-01T07:13:55;10.10;99.90
52209;DHT22;38507;53.132;6.394;2023-04-01T07:16:34;10.00;99.90
52209;DHT22;38507;53.132;6.394;2023-04-01T07:21:52;10.10;99.90
52209;DHT22;38507;53.132;6.394;2023-04-01T07:24:32;10.10;99.90
52209;DHT22;38507;53.132;6.394;2023-04-01T07:26:58;10.10;99.90
52209;DHT22;38507;53.132;6.394;2023-04-01T07:29:25;10.30;99.90
52209;DHT22;38507;53.132;6.394;2023-04-01T07:46:31;10.10;99.90
52209;DHT22;38507;53.132;6.394;2023-04-01T07:49:28;10.10;99.90
52209;DHT22;38507;53.132;6.394;2023-04-01T07:54:46;10.20;99.90
52209;DHT22;38507;53.132;6.394;2023-04-01T07:57:40;10.20;99.90
52209;DHT22;38507;53.132;6.394;2023-04-01T08:03:54;10.20;99.90
52209;DHT22;38507;53.132;6.394;2023-04-01T08:06:39;10.20;99.90
52209;DHT22;38507;53.132;6.394;2023-04-01T08:12:00;10.10;99.90
52209;DHT22;38507;53.132;6.394;2023-04-01T08:17:16;10.20;99.90
52209;DHT22;38507;53.132;6.394;2023-04-01T08:22:48;10.20;99.90
52209;DHT22;38507;53.132;6.394;2023-04-01T08:25:25;10.30;99.90
52209;DHT22;38507;53.132;6.394;2023-04-01T08:27:59;10.20;99.90
52209;DHT22;38507;53.132;6.394;2023-04-01T08:33:27;10.20;99.90
52209;DHT22;38507;53.132;6.394;2023-04-01T08:36:13;10.20;99.90
52209;DHT22;38507;53.132;6.394;2023-04-01T08:38:49;10.30;99.90
52209;DHT22;38507;53.132;6.394;2023-04-01T08:47:02;10.50;99.90
52209;DHT22;38507;53.132;6.394;2023-04-01T08:50:16;10.40;99.90
52209;DHT22;38507;53.132;6.394;2023-04-01T08:55:51;10.50;99.90
52209;DHT22;38507;53.132;6.394;2023-04-01T09:04:31;10.60;99.90
52209;DHT22;38507;53.132;6.394;2023-04-01T09:15:50;10.70;99.90
52209;DHT22;38507;53.132;6.394;2023-04-01T09:18:46;10.80;99.90
52209;DHT22;38507;53.132;6.394;2023-04-01T09:26:44;11.40;99.90
52209;DHT22;38507;53.132;6.394;2023-04-01T09:40:09;10.90;99.90
52209;DHT22;38507;53.132;6.394;2023-04-01T09:45:41;10.70;99.90
52209;DHT22;38507;53.132;6.394;2023-04-01T09:48:19;10.70;99.90
52209;DHT22;38507;53.132;6.394;2023-04-01T09:50:53;10.60;99.90
52209;DHT22;38507;53.132;6.394;2023-04-01T09:56:33;10.50;99.90
52209;DHT22;38507;53.132;6.394;2023-04-01T10:33:57;10.20;99.90
52209;DHT22;38507;53.132;6.394;2023-04-01T10:48:13;10.30;99.90
52209;DHT22;38507;53.132;6.394;2023-04-01T11:14:35;10.20;99.90
52209;DHT22;38507;53.132;6.394;2023-04-01T11:17:17;10.10;99.90
52209;DHT22;38507;53.132;6.394;2023-04-01T11:34:20;10.20;99.90
52209;DHT22;38507;53.132;6.394;2023-04-01T11:37:59;10.20;99.90
52209;DHT22;38507;53.132;6.394;2023-04-01T11:40:05;10.10;99.90
52209;DHT22;38507;53.132;6.394;2023-04-01T11:50:44;10.10;99.90
52209;DHT22;38507;53.132;6.394;2023-04-01T12:05:58;10.30;99.90
52209;DHT22;38507;53.132;6.394;2023-04-01T12:14:22;10.30;99.90
52209;DHT22;38507;53.132;6.394;2023-04-01T12:19:55;10.50;99.90
52209;DHT22;38507;53.132;6.394;2023-04-01T12:25:23;10.50;99.90
52209;DHT22;38507;53.132;6.394;2023-04-01T12:30:38;10.40;99.90
52209;DHT22;38507;53.132;6.394;2023-04-01T12:33:21;10.50;99.90
52209;DHT22;38507;53.132;6.394;2023-04-01T12:41:44;10.40;99.90
52209;DHT22;38507;53.132;6.394;2023-04-01T12:52:37;10.60;99.90
52209;DHT22;38507;53.132;6.394;2023-04-01T12:55:38;10.50;99.90
52209;DHT22;38507;53.132;6.394;2023-04-01T13:01:08;10.50;99.90
52209;DHT22;38507;53.132;6.394;2023-04-01T13:07:03;10.40;99.90
52209;DHT22;38507;53.132;6.394;2023-04-01T13:09:47;10.30;99.90
52209;DHT22;38507;53.132;6.394;2023-04-01T13:14:56;10.50;99.90
52209;DHT22;38507;53.132;6.394;2023-04-01T13:23:25;10.10;99.90
52209;DHT22;38507;53.132;6.394;2023-04-01T13:29:08;10.10;99.90
52209;DHT22;38507;53.132;6.394;2023-04-01T13:31:50;10.40;99.90
52209;DHT22;38507;53.132;6.394;2023-04-01T13:42:21;10.00;99.90
52209;DHT22;38507;53.132;6.394;2023-04-01T13:52:52;10.00;99.90
52209;DHT22;38507;53.132;6.394;2023-04-01T13:58:35;9.90;99.90
52209;DHT22;38507;53.132;6.394;2023-04-01T14:31:59;9.60;99.90
52209;DHT22;38507;53.132;6.394;2023-04-01T14:46:25;9.40;99.90
52209;DHT22;38507;53.132;6.394;2023-04-01T14:51:38;9.30;99.90
52209;DHT22;38507;53.132;6.394;2023-04-01T14:54:06;9.20;99.90
52209;DHT22;38507;53.132;6.394;2023-04-01T14:56:42;9.20;99.90
52209;DHT22;38507;53.132;6.394;2023-04-01T14:59:17;9.10;99.90
52209;DHT22;38507;53.132;6.394;2023-04-01T15:05:25;9.10;99.90
52209;DHT22;38507;53.132;6.394;2023-04-01T15:08:13;9.10;99.90
52209;DHT22;38507;53.132;6.394;2023-04-01T15:11:13;9.10;99.90
52209;DHT22;38507;53.132;6.394;2023-04-01T15:16:39;9.00;99.90
52209;DHT22;38507;53.132;6.394;2023-04-01T15:19:35;9.00;99.90
52209;DHT22;38507;53.132;6.394;2023-04-01T15:25:28;9.00;99.90
52209;DHT22;38507;53.132;6.394;2023-04-01T15:28:28;8.90;99.90
52209;DHT22;38507;53.132;6.394;2023-04-01T15:31:15;8.80;99.90
52209;DHT22;38507;53.132;6.394;2023-04-01T15:43:01;8.60;99.90
52209;DHT22;38507;53.132;6.394;2023-04-01T15:45:34;8.60;99.90
52209;DHT22;38507;53.132;6.394;2023-04-01T15:53:44;8.80;99.90
52209;DHT22;38507;53.132;6.394;2023-04-01T15:56:36;8.40;99.90
52209;DHT22;38507;53.132;6.394;2023-04-01T16:07:20;8.30;99.90
52209;DHT22;38507;53.132;6.394;2023-04-01T16:18:00;8.20;99.90
52209;DHT22;38507;53.132;6.394;2023-04-01T16:26:36;8.00;99.90
52209;DHT22;38507;53.132;6.394;2023-04-01T16:29:27;8.00;99.90
52209;DHT22;38507;53.132;6.394;2023-04-01T16:34:56;7.90;99.90
52209;DHT22;38507;53.132;6.394;2023-04-01T16:37:36;7.90;99.90
52209;DHT22;38507;53.132;6.394;2023-04-01T16:43:04;7.80;99.90
52209;DHT22;38507;53.132;6.394;2023-04-01T16:45:38;7.80;99.90
52209;DHT22;38507;53.132;6.394;2023-04-01T16:48:15;7.80;99.90
52209;DHT22;38507;53.132;6.394;2023-04-01T16:50:53;7.70;99.90
52209;DHT22;38507;53.132;6.394;2023-04-01T16:53:45;7.70;99.90
52209;DHT22;38507;53.132;6.394;2023-04-01T16:59:04;7.60;99.90
52209;DHT22;38507;53.132;6.394;2023-04-01T17:04:41;7.50;99.90
52209;DHT22;38507;53.132;6.394;2023-04-01T17:07:21;7.50;99.90
52209;DHT22;38507;53.132;6.394;2023-04-01T17:10:16;7.60;99.90
52209;DHT22;38507;53.132;6.394;2023-04-01T17:15:53;7.40;99.90
52209;DHT22;38507;53.132;6.394;2023-04-01T17:18:44;7.30;99.90
52209;DHT22;38507;53.132;6.394;2023-04-01T17:21:38;7.30;99.90
52209;DHT22;38507;53.132;6.394;2023-04-01T17:30:12;7.20;99.90
52209;DHT22;38507;53.132;6.394;2023-04-01T17:50:23;7.00;99.90
52209;DHT22;38507;53.132;6.394;2023-04-01T17:52:32;7.00;99.90
52209;DHT22;38507;53.132;6.394;2023-04-01T18:06:15;6.90;99.90
52209;DHT22;38507;53.132;6.394;2023-04-01T18:08:59;6.90;99.90
52209;DHT22;38507;53.132;6.394;2023-04-01T18:14:54;6.80;99.90
52209;DHT22;38507;53.132;6.394;2023-04-01T18:17:43;6.80;99.90
52209;DHT22;38507;53.132;6.394;2023-04-01T18:23:36;6.80;99.90
52209;DHT22;38507;53.132;6.394;2023-04-01T18:25:44;6.80;99.90
52209;DHT22;38507;53.132;6.394;2023-04-01T18:28:39;6.80;99.90
52209;DHT22;38507;53.132;6.394;2023-04-01T18:31:11;6.70;99.90
52209;DHT22;38507;53.132;6.394;2023-04-01T18:36:47;6.70;99.90
52209;DHT22;38507;53.132;6.394;2023-04-01T18:39:18;6.60;99.90
52209;DHT22;38507;53.132;6.394;2023-04-01T18:44:52;6.60;99.90
52209;DHT22;38507;53.132;6.394;2023-04-01T18:50:13;6.60;99.90
52209;DHT22;38507;53.132;6.394;2023-04-01T18:52:44;6.60;99.90
52209;DHT22;38507;53.132;6.394;2023-04-01T18:55:50;6.50;99.90
52209;DHT22;38507;53.132;6.394;2023-04-01T19:00:55;6.50;99.90
52209;DHT22;38507;53.132;6.394;2023-04-01T19:06:35;6.40;99.90
52209;DHT22;38507;53.132;6.394;2023-04-01T19:12:14;6.90;99.90
52209;DHT22;38507;53.132;6.394;2023-04-01T19:17:48;6.30;99.90
52209;DHT22;38507;53.132;6.394;2023-04-01T19:20:34;6.30;99.90
52209;DHT22;38507;53.132;6.394;2023-04-01T19:37:32;6.10;99.90
52209;DHT22;38507;53.132;6.394;2023-04-01T19:40:02;6.10;99.90
52209;DHT22;38507;53.132;6.394;2023-04-01T19:42:48;6.00;99.90
52209;DHT22;38507;53.132;6.394;2023-04-01T19:53:50;6.00;99.90
52209;DHT22;38507;53.132;6.394;2023-04-01T19:56:42;5.90;99.90
52209;DHT22;38507;53.132;6.394;2023-04-01T19:59:17;5.90;99.90
52209;DHT22;38507;53.132;6.394;2023-04-01T20:04:44;5.90;99.90
52209;DHT22;38507;53.132;6.394;2023-04-01T20:07:24;5.80;99.90
52209;DHT22;38507;53.132;6.394;2023-04-01T20:10:02;5.80;99.90
52209;DHT22;38507;53.132;6.394;2023-04-01T20:12:51;5.80;99.90
52209;DHT22;38507;53.132;6.394;2023-04-01T20:15:31;5.80;99.90
52209;DHT22;38507;53.132;6.394;2023-04-01T20:18:01;5.80;99.90
52209;DHT22;38507;53.132;6.394;2023-04-01T20:20:29;5.70;99.90
52209;DHT22;38507;53.132;6.394;2023-04-01T20:25:52;5.70;99.90
52209;DHT22;38507;53.132;6.394;2023-04-01T20:33:53;5.70;99.90
52209;DHT22;38507;53.132;6.394;2023-04-01T20:36:27;5.70;99.90
52209;DHT22;38507;53.132;6.394;2023-04-01T20:39:34;5.70;99.90
52209;DHT22;38507;53.132;6.394;2023-04-01T20:53:15;5.60;99.90
52209;DHT22;38507;53.132;6.394;2023-04-01T21:22:47;5.40;99.90
52209;DHT22;38507;53.132;6.394;2023-04-01T21:26:01;5.40;99.90
52209;DHT22;38507;53.132;6.394;2023-04-01T21:31:05;5.30;99.90
52209;DHT22;38507;53.132;6.394;2023-04-01T21:36:57;5.30;99.90
52209;DHT22;38507;53.132;6.394;2023-04-01T21:50:42;5.30;99.90
52209;DHT22;38507;53.132;6.394;2023-04-01T22:16:03;5.10;99.90
52209;DHT22;38507;53.132;6.394;2023-04-01T22:18:41;5.10;99.90
52209;DHT22;38507;53.132;6.394;2023-04-01T22:21:23;5.10;99.90
52209;DHT22;38507;53.132;6.394;2023-04-01T22:29:34;5.10;99.90
52209;DHT22;38507;53.132;6.394;2023-04-01T22:32:10;5.10;99.90
52209;DHT22;38507;53.132;6.394;2023-04-01T22:37:44;5.00;99.90
52209;DHT22;38507;53.132;6.394;2023-04-01T22:40:23;5.00;99.90
52209;DHT22;38507;53.132;6.394;2023-04-01T22:43:11;5.00;99.90
52209;DHT22;38507;53.132;6.394;2023-04-01T22:51:26;4.90;99.90
52209;DHT22;38507;53.132;6.394;2023-04-01T22:57:14;4.90;99.90
52209;DHT22;38507;53.132;6.394;2023-04-01T23:02:31;4.90;99.90
52209;DHT22;38507;53.132;6.394;2023-04-01T23:05:02;5.40;99.90
52209;DHT22;38507;53.132;6.394;2023-04-01T23:07:34;4.90;99.90
52209;DHT22;38507;53.132;6.394;2023-04-01T23:10:17;4.80;99.90
52209;DHT22;38507;53.132;6.394;2023-04-01T23:12:45;4.80;99.90
52209;DHT22;38507;53.132;6.394;2023-04-01T23:15:15;4.80;99.90
52209;DHT22;38507;53.132;6.394;2023-04-01T23:17:43;4.70;99.90
52209;DHT22;38507;53.132;6.394;2023-04-01T23:20:33;4.70;99.90
52209;DHT22;38507;53.132;6.394;2023-04-01T23:23:20;4.90;99.90
52209;DHT22;38507;53.132;6.394;2023-04-01T23:28:43;4.60;99.90
52209;DHT22;38507;53.132;6.394;2023-04-01T23:36:27;4.50;99.90
52209;DHT22;38507;53.132;6.394;2023-04-01T23:38:53;4.50;99.90
52209;DHT22;38507;53.132;6.394;2023-04-01T23:41:28;4.40;99.90
52209;DHT22;38507;53.132;6.394;2023-04-01T23:46:26;4.40;99.90
52209;DHT22;38507;53.132;6.394;2023-04-01T23:48:54;4.40;99.90
52209;DHT22;38507;53.132;6.394;2023-04-01T23:51:26;4.40;99.90
52209;DHT22;38507;53.132;6.394;2023-04-01T23:54:03;4.40;99.90
52209;DHT22;38507;53.132;6.394;2023-04-01T23:56:46;4.30;99.90
52209;DHT22;38507;53.132;6.394;2023-04-01T23:59:18;4.30;99.90
